createdAt,value
2023-03-04T00:01:23.390Z,3.06
2023-03-04T00:03:26.626Z,3.06
2023-03-04T00:05:31.218Z,3.00
2023-03-04T00:07:34.282Z,2.97
2023-03-04T00:09:37.681Z,2.94
2023-03-04T00:11:40.854Z,2.93
2023-03-04T00:13:44.054Z,2.92
2023-03-04T00:15:47.169Z,2.90
2023-03-04T00:17:51.694Z,2.86
2023-03-04T00:19:54.855Z,2.85
2023-03-04T00:21:59.790Z,2.81
2023-03-04T00:24:02.905Z,2.80
2023-03-04T00:26:06.259Z,2.79
2023-03-04T00:28:09.429Z,2.76
2023-03-04T00:30:13.196Z,2.76
2023-03-04T00:32:18.302Z,2.75
2023-03-04T00:34:22.846Z,2.74
2023-03-04T00:36:26.210Z,2.74
2023-03-04T00:38:32.023Z,2.72
2023-03-04T00:40:35.244Z,2.70
2023-03-04T00:42:38.424Z,2.66
2023-03-04T00:44:41.575Z,2.61
2023-03-04T00:46:44.718Z,2.59
2023-03-04T00:48:47.879Z,2.60
2023-03-04T00:50:53.990Z,2.59
2023-03-04T00:52:57.166Z,2.57
2023-03-04T00:55:00.273Z,2.55
2023-03-04T00:57:03.432Z,2.52
2023-03-04T00:59:06.531Z,2.48
2023-03-04T01:01:09.703Z,2.47
2023-03-04T01:03:12.932Z,2.46
2023-03-04T01:05:16.244Z,2.45
2023-03-04T01:07:20.747Z,2.45
2023-03-04T01:09:23.851Z,2.42
2023-03-04T01:11:27.029Z,2.46
2023-03-04T01:13:30.191Z,2.39
2023-03-04T01:15:33.278Z,2.41
2023-03-04T01:17:36.428Z,2.38
2023-03-04T01:19:39.538Z,2.35
2023-03-04T01:21:42.656Z,2.33
2023-03-04T01:23:47.302Z,2.32
2023-03-04T01:25:50.453Z,2.32
2023-03-04T01:27:55.297Z,2.29
2023-03-04T01:29:58.434Z,2.26
2023-03-04T01:32:01.569Z,2.25
2023-03-04T01:34:04.650Z,2.22
2023-03-04T01:36:08.174Z,2.17
2023-03-04T01:38:11.360Z,2.15
2023-03-04T01:40:16.192Z,2.12
2023-03-04T01:42:21.651Z,2.09
2023-03-04T01:44:24.837Z,2.07
2023-03-04T01:46:28.486Z,2.08
2023-03-04T01:48:34.078Z,2.06
2023-03-04T01:50:37.258Z,2.07
2023-03-04T01:52:41.102Z,2.03
2023-03-04T01:54:44.519Z,1.99
2023-03-04T01:56:50.328Z,1.94
2023-03-04T01:59:12.189Z,1.92
2023-03-04T02:01:15.706Z,1.88
2023-03-04T02:03:20.657Z,1.86
2023-03-04T02:05:24.720Z,1.84
2023-03-04T02:07:27.964Z,1.87
2023-03-04T02:09:31.886Z,1.88
2023-03-04T02:11:36.334Z,1.88
2023-03-04T02:13:40.845Z,1.86
2023-03-04T02:15:45.421Z,1.90
2023-03-04T02:17:48.785Z,1.88
2023-03-04T02:19:56.382Z,1.88
2023-03-04T02:21:59.574Z,1.87
2023-03-04T02:24:11.167Z,1.83
2023-03-04T02:26:17.269Z,1.82
2023-03-04T02:28:22.357Z,1.81
2023-03-04T02:30:26.396Z,1.76
2023-03-04T02:32:29.591Z,1.68
2023-03-04T02:34:34.704Z,1.62
2023-03-04T02:36:37.918Z,1.57
2023-03-04T02:38:41.173Z,1.48
2023-03-04T02:40:47.966Z,1.46
2023-03-04T02:42:52.590Z,1.47
2023-03-04T02:45:01.087Z,1.44
2023-03-04T02:47:05.230Z,1.41
2023-03-04T02:49:08.293Z,1.41
2023-03-04T02:51:11.443Z,1.44
2023-03-04T02:53:15.383Z,1.43
2023-03-04T02:55:18.694Z,1.42
2023-03-04T02:57:22.314Z,1.42
2023-03-04T02:59:30.994Z,1.45
2023-03-04T03:01:34.046Z,1.46
2023-03-04T03:03:37.453Z,1.41
2023-03-04T03:05:41.098Z,1.39
2023-03-04T03:07:44.724Z,1.38
2023-03-04T03:09:47.831Z,1.34
2023-03-04T03:11:50.894Z,1.29
2023-03-04T03:13:54.071Z,1.28
2023-03-04T03:15:58.859Z,1.26
2023-03-04T03:18:02.224Z,1.24
2023-03-04T03:20:06.443Z,1.25
2023-03-04T03:22:09.634Z,1.26
2023-03-04T03:24:12.733Z,1.23
2023-03-04T03:26:16.268Z,1.16
2023-03-04T03:28:19.416Z,1.11
2023-03-04T03:30:22.739Z,1.08
2023-03-04T03:32:27.589Z,1.10
2023-03-04T03:34:30.914Z,1.08
2023-03-04T03:36:34.191Z,1.08
2023-03-04T03:38:37.535Z,1.07
2023-03-04T03:40:40.648Z,1.15
2023-03-04T03:42:43.758Z,1.18
2023-03-04T03:44:46.877Z,1.16
2023-03-04T03:46:49.970Z,1.15
2023-03-04T03:48:54.546Z,1.13
2023-03-04T03:50:57.628Z,1.14
2023-03-04T03:53:01.024Z,1.13
2023-03-04T03:55:04.426Z,1.11
2023-03-04T03:57:07.695Z,1.10
2023-03-04T03:59:11.117Z,1.08
2023-03-04T04:01:14.285Z,1.07
2023-03-04T04:03:17.884Z,1.03
2023-03-04T04:05:22.348Z,1.07
2023-03-04T04:07:25.474Z,1.02
2023-03-04T04:09:28.515Z,0.98
2023-03-04T04:11:31.597Z,0.97
2023-03-04T04:13:34.631Z,0.94
2023-03-04T04:15:38.786Z,0.91
2023-03-04T04:17:41.891Z,0.89
2023-03-04T04:19:45.006Z,0.86
2023-03-04T04:21:50.730Z,0.81
2023-03-04T04:23:53.811Z,0.78
2023-03-04T04:25:57.272Z,0.80
2023-03-04T04:28:00.534Z,0.77
2023-03-04T04:30:03.685Z,0.74
2023-03-04T04:32:07.414Z,0.71
2023-03-04T04:34:10.610Z,0.71
2023-03-04T04:36:14.760Z,0.75
2023-03-04T04:38:19.211Z,0.69
2023-03-04T04:40:22.383Z,0.69
2023-03-04T04:42:25.642Z,0.66
2023-03-04T04:44:28.942Z,0.64
2023-03-04T04:46:32.038Z,0.65
2023-03-04T04:48:35.156Z,0.69
2023-03-04T04:50:38.244Z,0.70
2023-03-04T04:52:41.891Z,0.68
2023-03-04T04:54:46.403Z,0.60
2023-03-04T04:56:49.513Z,0.52
2023-03-04T04:58:52.813Z,0.43
2023-03-04T05:00:58.076Z,0.36
2023-03-04T05:03:01.208Z,0.42
2023-03-04T05:05:04.533Z,0.43
2023-03-04T05:07:07.643Z,0.47
2023-03-04T05:09:10.755Z,0.46
2023-03-04T05:11:15.244Z,0.44
2023-03-04T05:13:19.559Z,0.44
2023-03-04T05:15:22.714Z,0.38
2023-03-04T05:17:26.772Z,0.35
2023-03-04T05:19:29.848Z,0.36
2023-03-04T05:21:32.992Z,0.33
2023-03-04T05:23:38.046Z,0.30
2023-03-04T05:25:41.269Z,0.28
2023-03-04T05:27:46.171Z,0.30
2023-03-04T05:29:49.559Z,0.37
2023-03-04T05:31:52.689Z,0.40
2023-03-04T05:33:55.812Z,0.40
2023-03-04T05:35:59.217Z,0.41
2023-03-04T05:38:02.425Z,0.43
2023-03-04T05:40:06.685Z,0.46
2023-03-04T05:42:09.838Z,0.47
2023-03-04T05:44:14.337Z,0.45
2023-03-04T05:46:19.301Z,0.42
2023-03-04T05:48:22.990Z,0.40
2023-03-04T05:50:26.213Z,0.36
2023-03-04T05:52:29.396Z,0.41
2023-03-04T05:54:32.442Z,0.46
2023-03-04T05:56:35.676Z,0.48
2023-03-04T05:58:38.840Z,0.48
2023-03-04T06:00:43.539Z,0.54
2023-03-04T06:02:46.782Z,0.62
2023-03-04T06:04:50.019Z,0.60
2023-03-04T06:06:53.047Z,0.66
2023-03-04T06:08:56.192Z,0.64
2023-03-04T06:11:00.211Z,0.70
2023-03-04T06:13:03.284Z,0.76
2023-03-04T06:15:07.134Z,0.82
2023-03-04T06:17:11.540Z,0.88
2023-03-04T06:19:14.655Z,0.93
2023-03-04T06:21:17.811Z,0.91
2023-03-04T06:23:20.911Z,0.95
2023-03-04T06:25:24.340Z,0.91
2023-03-04T06:27:27.673Z,0.89
2023-03-04T06:29:31.370Z,0.91
2023-03-04T06:31:34.593Z,0.92
2023-03-04T06:33:39.139Z,0.96
2023-03-04T06:35:42.179Z,1.00
2023-03-04T06:37:45.300Z,1.02
2023-03-04T06:39:48.282Z,1.07
2023-03-04T06:41:51.453Z,1.12
2023-03-04T06:43:55.119Z,1.14
2023-03-04T06:45:58.199Z,1.17
2023-03-04T06:48:01.228Z,1.21
2023-03-04T06:50:06.780Z,1.22
2023-03-04T06:52:11.305Z,1.27
2023-03-04T06:54:14.405Z,1.34
2023-03-04T06:56:17.820Z,1.37
2023-03-04T06:58:20.874Z,1.42
2023-03-04T07:00:25.016Z,1.50
2023-03-04T07:02:28.153Z,1.54
2023-03-04T07:04:32.679Z,1.59
2023-03-04T07:06:37.178Z,1.64
2023-03-04T07:08:40.844Z,1.68
2023-03-04T07:10:43.935Z,1.77
2023-03-04T07:12:47.211Z,1.78
2023-03-04T07:14:50.314Z,1.83
2023-03-04T07:16:53.331Z,1.89
2023-03-04T07:18:56.486Z,1.90
2023-03-04T07:20:59.566Z,1.92
2023-03-04T07:23:04.188Z,1.92
2023-03-04T07:25:08.353Z,1.96
2023-03-04T07:27:11.453Z,1.99
2023-03-04T07:29:14.813Z,2.01
2023-03-04T07:31:22.559Z,2.05
2023-03-04T07:33:25.740Z,2.06
2023-03-04T07:35:28.817Z,2.10
2023-03-04T07:37:31.874Z,2.17
2023-03-04T07:39:36.284Z,2.27
2023-03-04T07:41:39.424Z,2.36
2023-03-04T07:43:42.570Z,2.43
2023-03-04T07:45:45.777Z,2.52
2023-03-04T07:47:48.943Z,2.59
2023-03-04T07:49:52.090Z,2.67
2023-03-04T07:51:55.254Z,2.76
2023-03-04T07:54:02.100Z,2.84
2023-03-04T07:56:08.450Z,2.88
2023-03-04T07:58:11.533Z,2.94
2023-03-04T08:00:16.958Z,3.00
2023-03-04T08:02:20.145Z,3.00
2023-03-04T08:04:23.456Z,3.05
2023-03-04T08:06:27.052Z,3.08
2023-03-04T08:08:30.198Z,3.12
2023-03-04T08:10:33.316Z,3.14
2023-03-04T08:12:37.836Z,3.17
2023-03-04T08:14:40.900Z,3.21
2023-03-04T08:16:44.174Z,3.24
2023-03-04T08:18:49.154Z,3.27
2023-03-04T08:20:52.391Z,3.24
2023-03-04T08:22:55.618Z,3.16
2023-03-04T08:24:58.812Z,3.13
2023-03-04T08:27:01.958Z,3.16
2023-03-04T08:29:07.311Z,3.18
2023-03-04T08:31:10.669Z,3.19
2023-03-04T08:33:13.877Z,3.21
2023-03-04T08:35:17.319Z,3.10
2023-03-04T08:37:20.504Z,3.13
2023-03-04T08:39:23.636Z,3.13
2023-03-04T08:41:27.554Z,3.14
2023-03-04T08:43:31.002Z,3.16
2023-03-04T08:45:35.439Z,3.10
2023-03-04T08:47:39.438Z,3.14
2023-03-04T08:49:42.606Z,3.16
2023-03-04T08:51:46.209Z,3.17
2023-03-04T08:53:49.362Z,3.20
2023-03-04T08:55:53.749Z,3.22
2023-03-04T08:57:56.917Z,3.24
2023-03-04T09:00:00.310Z,3.30
2023-03-04T09:02:04.862Z,3.35
2023-03-04T09:04:08.105Z,3.40
2023-03-04T09:06:13.174Z,3.44
2023-03-04T09:08:16.544Z,3.51
2023-03-04T09:10:19.658Z,3.60
2023-03-04T09:12:22.750Z,3.68
2023-03-04T09:14:25.844Z,3.78
2023-03-04T09:16:29.798Z,3.82
2023-03-04T09:18:34.386Z,3.88
2023-03-04T09:20:37.505Z,3.92
2023-03-04T09:22:41.126Z,3.93
2023-03-04T09:24:44.226Z,3.97
2023-03-04T09:26:51.531Z,3.96
2023-03-04T09:28:55.907Z,3.97
2023-03-04T09:30:59.228Z,4.03
2023-03-04T09:33:02.424Z,4.10
2023-03-04T09:35:08.031Z,4.17
2023-03-04T09:37:11.087Z,4.24
2023-03-04T09:39:14.228Z,4.32
2023-03-04T09:41:20.022Z,4.28
2023-03-04T09:43:29.407Z,4.21
2023-03-04T09:45:38.556Z,4.15
2023-03-04T09:47:42.090Z,4.16
2023-03-04T09:49:47.163Z,4.19
2023-03-04T09:51:56.898Z,4.21
2023-03-04T09:54:07.792Z,4.28
2023-03-04T09:56:12.130Z,4.38
2023-03-04T09:58:21.261Z,4.47
2023-03-04T10:00:27.759Z,4.55
2023-03-04T10:02:46.526Z,4.55
2023-03-04T10:04:51.515Z,4.58
2023-03-04T10:06:56.300Z,4.63
2023-03-04T10:09:01.562Z,4.60
2023-03-04T10:11:09.256Z,4.52
2023-03-04T10:13:16.145Z,4.42
2023-03-04T10:15:33.780Z,4.48
2023-03-04T10:17:39.077Z,4.41
2023-03-04T10:19:58.152Z,4.49
2023-03-04T10:22:03.314Z,4.49
2023-03-04T10:24:13.578Z,4.65
2023-03-04T10:26:20.837Z,4.72
2023-03-04T10:28:26.627Z,4.78
2023-03-04T10:30:38.195Z,4.73
2023-03-04T10:32:47.054Z,4.70
2023-03-04T10:34:50.179Z,4.64
2023-03-04T10:36:58.006Z,4.61
2023-03-04T10:39:04.924Z,4.68
2023-03-04T10:41:14.049Z,4.66
2023-03-04T10:43:18.728Z,4.66
2023-03-04T10:45:26.370Z,4.65
2023-03-04T10:47:31.441Z,4.66
2023-03-04T10:49:34.640Z,4.66
2023-03-04T10:51:43.862Z,4.66
2023-03-04T10:53:49.030Z,4.69
2023-03-04T10:55:53.605Z,4.77
2023-03-04T10:57:58.186Z,4.85
2023-03-04T11:00:02.458Z,4.90
2023-03-04T11:02:17.061Z,4.85
2023-03-04T11:04:20.267Z,4.84
2023-03-04T11:06:24.528Z,4.84
2023-03-04T11:08:27.648Z,4.93
2023-03-04T11:10:32.940Z,4.98
2023-03-04T11:12:37.441Z,5.07
2023-03-04T11:14:44.323Z,5.12
2023-03-04T11:16:55.048Z,5.14
2023-03-04T11:19:03.886Z,5.08
2023-03-04T11:21:07.924Z,5.06
2023-03-04T11:23:13.848Z,5.13
2023-03-04T11:25:24.999Z,5.13
2023-03-04T11:27:38.785Z,5.18
2023-03-04T11:29:45.260Z,5.21
2023-03-04T11:31:52.494Z,5.25
2023-03-04T11:33:58.441Z,5.18
2023-03-04T11:36:09.579Z,5.10
2023-03-04T11:38:18.541Z,5.14
2023-03-04T11:40:27.419Z,5.17
2023-03-04T11:42:35.932Z,5.23
2023-03-04T11:44:41.512Z,5.25
2023-03-04T11:46:55.583Z,5.26
2023-03-04T11:49:07.772Z,5.20
2023-03-04T11:51:14.862Z,5.13
2023-03-04T11:53:51.992Z,5.10
2023-03-04T11:56:04.376Z,5.07
2023-03-04T11:58:18.062Z,5.09
2023-03-04T12:00:31.384Z,5.11
2023-03-04T12:02:41.490Z,5.16
2023-03-04T12:05:25.459Z,5.23
2023-03-04T12:07:47.009Z,5.28
2023-03-04T12:09:59.283Z,5.32
2023-03-04T12:12:13.526Z,5.34
2023-03-04T12:14:29.393Z,5.34
2023-03-04T12:16:49.877Z,5.35
2023-03-04T12:19:03.691Z,5.34
2023-03-04T12:21:19.280Z,5.34
2023-03-04T12:23:42.055Z,5.31
2023-03-04T12:25:47.250Z,5.33
2023-03-04T12:27:56.714Z,5.34
2023-03-04T12:30:05.688Z,5.37
2023-03-04T12:32:15.981Z,5.42
2023-03-04T12:34:47.827Z,5.46
2023-03-04T12:36:57.340Z,5.41
2023-03-04T12:39:02.251Z,5.43
2023-03-04T12:41:17.604Z,5.48
2023-03-04T12:43:30.560Z,5.50
2023-03-04T12:45:38.329Z,5.48
2023-03-04T12:47:52.473Z,5.49
2023-03-04T12:50:11.501Z,5.51
2023-03-04T12:52:20.467Z,5.51
2023-03-04T12:54:29.032Z,5.51
2023-03-04T12:56:39.241Z,5.54
2023-03-04T12:58:42.579Z,5.55
2023-03-04T13:00:53.107Z,5.56
2023-03-04T13:03:04.388Z,5.59
2023-03-04T13:05:25.192Z,5.60
2023-03-04T13:07:37.879Z,5.52
2023-03-04T13:09:49.456Z,5.51
2023-03-04T13:12:06.299Z,5.52
2023-03-04T13:14:19.524Z,5.51
2023-03-04T13:16:32.773Z,5.54
2023-03-04T13:18:39.470Z,5.54
2023-03-04T13:20:43.312Z,5.56
2023-03-04T13:22:48.219Z,5.53
2023-03-04T13:24:54.895Z,5.53
2023-03-04T13:26:58.208Z,5.54
2023-03-04T13:29:30.604Z,5.54
2023-03-04T13:31:33.847Z,5.54
2023-03-04T13:34:07.416Z,5.48
2023-03-04T13:36:59.172Z,5.42
2023-03-04T13:39:04.618Z,5.44
2023-03-04T13:41:15.054Z,5.44
2023-03-04T13:43:29.649Z,5.47
2023-03-04T13:45:35.749Z,5.49
2023-03-04T13:47:47.989Z,5.49
2023-03-04T13:50:34.774Z,5.48
2023-03-04T13:52:42.401Z,5.46
2023-03-04T13:54:45.541Z,5.47
2023-03-04T13:56:50.500Z,5.46
2023-03-04T13:59:04.036Z,5.39
2023-03-04T14:01:19.399Z,5.40
2023-03-04T14:03:27.264Z,5.43
2023-03-04T14:05:35.874Z,5.42
2023-03-04T14:07:39.688Z,5.43
2023-03-04T14:09:58.672Z,5.44
2023-03-04T14:12:04.672Z,5.44
2023-03-04T14:14:08.763Z,5.44
2023-03-04T14:16:12.214Z,5.47
2023-03-04T14:18:15.403Z,5.46
2023-03-04T14:20:27.361Z,5.43
2023-03-04T14:22:34.318Z,5.48
2023-03-04T14:24:37.473Z,5.46
2023-03-04T14:26:40.644Z,5.34
2023-03-04T14:28:45.814Z,5.29
2023-03-04T14:30:53.811Z,5.32
2023-03-04T14:32:59.391Z,5.34
2023-03-04T14:35:06.232Z,5.36
2023-03-04T14:37:22.395Z,5.39
2023-03-04T14:39:28.749Z,5.41
2023-03-04T14:41:34.994Z,5.45
2023-03-04T14:43:41.107Z,5.48
2023-03-04T14:45:44.873Z,5.51
2023-03-04T14:47:48.619Z,5.54
2023-03-04T14:49:52.204Z,5.56
2023-03-04T14:51:56.409Z,5.57
2023-03-04T14:54:00.062Z,5.55
2023-03-04T14:56:09.032Z,5.50
2023-03-04T14:58:23.092Z,5.47
2023-03-04T15:00:30.170Z,5.48
2023-03-04T15:02:39.755Z,5.48
2023-03-04T15:04:42.929Z,5.49
2023-03-04T15:06:50.899Z,5.52
2023-03-04T15:08:58.806Z,5.53
2023-03-04T15:11:05.573Z,5.53
2023-03-04T15:13:10.338Z,5.49
2023-03-04T15:15:32.430Z,5.43
2023-03-04T15:17:38.836Z,5.45
2023-03-04T15:19:41.981Z,5.43
2023-03-04T15:21:45.061Z,5.40
2023-03-04T15:23:48.210Z,5.45
2023-03-04T15:25:54.346Z,5.48
2023-03-04T15:28:01.121Z,5.49
2023-03-04T15:30:08.798Z,5.48
2023-03-04T15:32:12.449Z,5.48
2023-03-04T15:34:18.081Z,5.46
2023-03-04T15:36:24.159Z,5.45
2023-03-04T15:38:28.176Z,5.46
2023-03-04T15:40:34.103Z,5.45
2023-03-04T15:42:37.414Z,5.42
2023-03-04T15:44:42.218Z,5.44
2023-03-04T15:46:45.375Z,5.42
2023-03-04T15:48:49.895Z,5.43
2023-03-04T15:50:57.573Z,5.44
2023-03-04T15:53:02.958Z,5.43
2023-03-04T15:55:07.320Z,5.39
2023-03-04T15:57:17.741Z,5.41
2023-03-04T15:59:20.932Z,5.42
2023-03-04T16:01:26.198Z,5.41
2023-03-04T16:03:29.783Z,5.43
2023-03-04T16:05:33.171Z,5.45
2023-03-04T16:07:37.470Z,5.46
2023-03-04T16:09:40.765Z,5.45
2023-03-04T16:11:47.368Z,5.44
2023-03-04T16:13:50.781Z,5.47
2023-03-04T16:15:54.443Z,5.45
2023-03-04T16:17:59.704Z,5.43
2023-03-04T16:20:02.835Z,5.42
2023-03-04T16:22:06.276Z,5.44
2023-03-04T16:24:17.045Z,5.45
2023-03-04T16:26:24.965Z,5.44
2023-03-04T16:28:28.223Z,5.44
2023-03-04T16:30:32.163Z,5.45
2023-03-04T16:32:35.555Z,5.45
2023-03-04T16:34:40.166Z,5.46
2023-03-04T16:36:43.509Z,5.44
2023-03-04T16:38:46.772Z,5.44
2023-03-04T16:40:50.598Z,5.44
2023-03-04T16:42:54.205Z,5.44
2023-03-04T16:44:57.510Z,5.44
2023-03-04T16:47:02.495Z,5.45
2023-03-04T16:49:05.794Z,5.45
2023-03-04T16:51:14.702Z,5.46
2023-03-04T16:53:25.193Z,5.46
2023-03-04T16:55:29.905Z,5.46
2023-03-04T16:57:33.036Z,5.47
2023-03-04T16:59:36.177Z,5.48
2023-03-04T17:01:39.571Z,5.48
2023-03-04T17:03:42.958Z,5.47
2023-03-04T17:05:47.762Z,5.49
2023-03-04T17:07:52.462Z,5.48
2023-03-04T17:09:55.679Z,5.45
2023-03-04T17:12:00.078Z,5.44
2023-03-04T17:14:03.821Z,5.41
2023-03-04T17:16:07.447Z,5.42
2023-03-04T17:18:10.647Z,5.41
2023-03-04T17:20:15.861Z,5.41
2023-03-04T17:22:19.131Z,5.40
2023-03-04T17:24:23.666Z,5.40
2023-03-04T17:26:26.805Z,5.37
2023-03-04T17:28:30.423Z,5.35
2023-03-04T17:30:33.588Z,5.32
2023-03-04T17:32:36.769Z,5.27
2023-03-04T17:34:40.121Z,5.27
2023-03-04T17:36:43.255Z,5.28
2023-03-04T17:38:46.895Z,5.22
2023-03-04T17:40:51.449Z,5.13
2023-03-04T17:42:54.760Z,5.06
2023-03-04T17:44:58.024Z,5.01
2023-03-04T17:47:01.180Z,4.97
2023-03-04T17:49:04.386Z,4.87
2023-03-04T17:51:10.728Z,4.78
2023-03-04T17:53:13.879Z,4.71
2023-03-04T17:55:17.376Z,4.72
2023-03-04T17:57:21.980Z,4.71
2023-03-04T17:59:25.461Z,4.69
2023-03-04T18:01:29.222Z,4.70
2023-03-04T18:03:32.363Z,4.70
2023-03-04T18:05:35.888Z,4.68
2023-03-04T18:07:39.070Z,4.65
2023-03-04T18:09:43.141Z,4.67
2023-03-04T18:11:46.427Z,4.69
2023-03-04T18:13:51.175Z,4.70
2023-03-04T18:15:55.414Z,4.72
2023-03-04T18:17:58.898Z,4.76
2023-03-04T18:20:02.967Z,4.80
2023-03-04T18:22:06.873Z,4.84
2023-03-04T18:24:10.811Z,4.87
2023-03-04T18:26:14.659Z,4.90
2023-03-04T18:28:17.896Z,4.91
2023-03-04T18:30:27.199Z,4.93
2023-03-04T18:32:41.774Z,4.96
2023-03-04T18:34:53.292Z,5.00
2023-03-04T18:36:56.757Z,5.03
2023-03-04T18:39:00.492Z,5.05
2023-03-04T18:41:06.872Z,5.06
2023-03-04T18:43:13.744Z,5.06
2023-03-04T18:45:17.848Z,5.05
2023-03-04T18:47:22.997Z,5.04
2023-03-04T18:49:26.437Z,5.04
2023-03-04T18:51:29.921Z,5.06
2023-03-04T18:53:33.191Z,5.05
2023-03-04T18:55:36.546Z,5.05
2023-03-04T18:57:40.080Z,5.07
2023-03-04T18:59:45.458Z,5.07
2023-03-04T19:01:49.259Z,5.06
2023-03-04T19:03:54.532Z,5.03
2023-03-04T19:05:57.860Z,5.02
2023-03-04T19:08:01.207Z,5.00
2023-03-04T19:10:05.038Z,5.00
2023-03-04T19:12:08.362Z,4.98
2023-03-04T19:14:12.073Z,5.01
2023-03-04T19:16:15.698Z,4.99
2023-03-04T19:18:18.959Z,4.97
2023-03-04T19:20:23.619Z,5.01
2023-03-04T19:22:26.825Z,5.01
2023-03-04T19:24:29.998Z,5.03
2023-03-04T19:26:33.260Z,5.03
2023-03-04T19:28:36.385Z,5.02
2023-03-04T19:30:40.113Z,4.99
2023-03-04T19:32:43.453Z,5.01
2023-03-04T19:34:47.194Z,5.02
2023-03-04T19:36:51.691Z,5.01
2023-03-04T19:38:55.945Z,5.01
2023-03-04T19:40:59.742Z,5.02
2023-03-04T19:43:02.932Z,4.99
2023-03-04T19:45:09.561Z,4.98
2023-03-04T19:47:12.831Z,4.99
2023-03-04T19:49:15.947Z,5.01
2023-03-04T19:51:20.911Z,5.01
2023-03-04T19:53:25.553Z,5.03
2023-03-04T19:55:28.806Z,5.06
2023-03-04T19:57:32.422Z,5.08
2023-03-04T19:59:35.944Z,5.10
2023-03-04T20:01:39.361Z,5.09
2023-03-04T20:03:42.650Z,5.11
2023-03-04T20:05:46.436Z,5.12
2023-03-04T20:07:49.546Z,5.11
2023-03-04T20:09:55.754Z,5.10
2023-03-04T20:11:59.584Z,5.12
2023-03-04T20:14:04.497Z,5.12
2023-03-04T20:16:09.285Z,5.13
2023-03-04T20:18:12.458Z,5.08
2023-03-04T20:20:16.466Z,5.06
2023-03-04T20:22:19.671Z,5.03
2023-03-04T20:24:23.293Z,5.00
2023-03-04T20:26:28.315Z,4.99
2023-03-04T20:28:31.730Z,4.99
2023-03-04T20:30:34.965Z,4.94
2023-03-04T20:32:38.165Z,4.89
2023-03-04T20:34:41.331Z,4.88
2023-03-04T20:36:44.549Z,4.93
2023-03-04T20:38:49.176Z,4.94
2023-03-04T20:40:52.396Z,4.97
2023-03-04T20:42:56.873Z,4.96
2023-03-04T20:45:00.009Z,4.96
2023-03-04T20:47:03.343Z,4.94
2023-03-04T20:49:08.018Z,4.97
2023-03-04T20:51:11.257Z,4.97
2023-03-04T20:53:14.672Z,4.97
2023-03-04T20:55:18.205Z,4.98
2023-03-04T20:57:21.491Z,4.98
2023-03-04T20:59:26.146Z,4.98
2023-03-04T21:01:31.046Z,4.99
2023-03-04T21:03:34.224Z,5.00
2023-03-04T21:05:37.527Z,4.96
2023-03-04T21:07:40.675Z,4.95
2023-03-04T21:09:45.278Z,4.93
2023-03-04T21:11:49.624Z,4.93
2023-03-04T21:13:56.472Z,4.92
2023-03-04T21:16:01.190Z,4.93
2023-03-04T21:18:04.451Z,4.93
2023-03-04T21:20:08.890Z,4.93
2023-03-04T21:22:15.308Z,4.90
2023-03-04T21:24:21.271Z,4.90
2023-03-04T21:26:24.710Z,4.89
2023-03-04T21:28:27.963Z,4.90
2023-03-04T21:30:31.107Z,4.92
2023-03-04T21:32:35.729Z,4.92
2023-03-04T21:34:41.747Z,4.94
2023-03-04T21:36:44.948Z,4.96
2023-03-04T21:38:48.937Z,4.96
2023-03-04T21:40:52.849Z,4.98
2023-03-04T21:42:55.959Z,4.99
2023-03-04T21:44:59.080Z,4.98
2023-03-04T21:47:02.244Z,5.02
2023-03-04T21:49:09.088Z,5.03
2023-03-04T21:51:14.073Z,5.03
2023-03-04T21:53:21.541Z,5.04
2023-03-04T21:55:24.746Z,5.06
2023-03-04T21:57:28.004Z,5.05
2023-03-04T21:59:31.234Z,5.03
2023-03-04T22:01:35.438Z,5.00
2023-03-04T22:03:38.753Z,5.00
2023-03-04T22:05:44.939Z,4.99
2023-03-04T22:07:48.068Z,4.99
2023-03-04T22:09:54.190Z,4.99
2023-03-04T22:11:57.241Z,4.99
2023-03-04T22:14:01.752Z,5.01
2023-03-04T22:16:06.555Z,4.99
2023-03-04T22:18:10.856Z,4.94
2023-03-04T22:20:15.541Z,4.93
2023-03-04T22:22:20.301Z,4.92
2023-03-04T22:24:23.908Z,4.88
2023-03-04T22:26:31.808Z,4.83
2023-03-04T22:28:35.220Z,4.84
2023-03-04T22:30:38.578Z,4.84
2023-03-04T22:32:41.783Z,4.84
2023-03-04T22:34:45.148Z,4.81
2023-03-04T22:36:49.300Z,4.79
2023-03-04T22:38:53.829Z,4.80
2023-03-04T22:40:56.984Z,4.83
2023-03-04T22:43:00.179Z,4.85
2023-03-04T22:45:03.562Z,4.87
2023-03-04T22:47:07.150Z,4.88
2023-03-04T22:49:12.519Z,4.89
2023-03-04T22:51:15.796Z,4.89
2023-03-04T22:53:19.136Z,4.91
2023-03-04T22:55:23.828Z,4.93
2023-03-04T22:57:26.936Z,4.97
2023-03-04T22:59:29.972Z,4.98
2023-03-04T23:01:33.318Z,4.97
2023-03-04T23:03:37.281Z,4.97
2023-03-04T23:05:41.369Z,4.97
2023-03-04T23:07:47.620Z,4.94
2023-03-04T23:09:50.759Z,4.93
2023-03-04T23:11:55.601Z,4.92
2023-03-04T23:14:06.515Z,4.88
2023-03-04T23:16:11.573Z,4.88
2023-03-04T23:18:18.236Z,4.90
2023-03-04T23:20:22.845Z,4.90
2023-03-04T23:22:26.066Z,4.94
2023-03-04T23:24:30.358Z,4.93
2023-03-04T23:26:35.857Z,4.93
2023-03-04T23:28:44.593Z,4.92
2023-03-04T23:30:48.350Z,4.94
2023-03-04T23:32:51.851Z,4.93
2023-03-04T23:34:56.262Z,4.95
2023-03-04T23:37:08.825Z,4.96
2023-03-04T23:39:14.212Z,4.96
2023-03-04T23:41:23.047Z,4.97
2023-03-04T23:43:27.467Z,4.97
2023-03-04T23:45:33.284Z,4.99
2023-03-04T23:47:36.674Z,4.97
2023-03-04T23:49:39.996Z,4.97
2023-03-04T23:51:46.309Z,4.97
2023-03-04T23:53:49.694Z,4.96
2023-03-04T23:55:53.044Z,4.96
2023-03-04T23:57:56.382Z,4.95
2023-03-04T23:59:59.579Z,4.96
